Hlavní strana
METAR-TAF:

METAR-TAF

Letiště :

Georgetown, Jižní Karolína, Spojené státy americké

zeměpisná šířka: 33-18-41N, zeměpisná délka: 079-19-13W, výška: 12 m

Aktuální stav počasí

Zpráva byla vytvořena před 13 minutami, v 18:15 UTC
Severozápadní vítr 10 kt s nárazy do 17 kt
Teplota 11°C
Vlhkost vzduchu 40%
Tlak 1018 hPa
Viditelnost: 16.1 km
Jasno

METAR: KGGE 271815Z AUTO 32010G17KT 10SM CLR 11/M02 A3005 RMK AO2

Čas: 13:28 (18:28 UTC)


TAF: chybějící

Stav a předpovědi počasí z více než 4 000 letišť (zprávy METAR a TAF).

Červené a žluté tečky na mapě představují dostupné meteorologické stanice.

Když kurzor umístíte na tečku, zobrazí se název stanice.

Pak kliknutím zobrazíte stav a předpověď počasí.

Chcete-li změnit mapu, kliknutím na zelené tlačítko se znaménkem +mapu přiblížíte, kliknutím na zelené tlačítko se znaménkem – mapu oddálíte a kliknutím na zelené šipky přejdete na sousední mapy.


METAR-TAF: